Utica, PA (16362)

5:22 PM EST on January 31, 2015 (GMT -0500)
Cochranton PA | Change Station
CLOSE
Current Station
Personal Weather Station
Location: Cochranton, PA
Elevation: 1056 ft
Nearby Weather Stations
Active Advisory: Winter Storm Warning

Elev 1056 ft 41.52 °N, 80.05 °W | Updated 2 minutes ago

Partly Cloudy
Partly Cloudy
22.1 °F
Feels Like 22 °F
N
1.6
Wind Variable Wind from North
Gusts 1.6 mph

Today
High -- | Low -- °F
--% Chance of Precip.
Yesterday
High -- | Low -- °F
Precip. -- in
7:32 AM 5:34 PM
Waxing Gibbous, 92% visible
Pressure 30.20 in
Visibility 10.0 miles
Clouds Clear
Windchill 22 °F
Dew Point 11 °F
Humidity 62%
Rainfall 0.02 in
Snow Depth Not available.
UV 0 out of 12
Pollen .10 out of 12
Air Quality Not available.
Flu Activity Not available.
METAR KFKL 312215Z AUTO 24005KT 10SM CLR M05/M12 A3020 RMK AO1

More Conditions Fewer Conditions

Pressure 30.20 in
Visibility 10.0 miles
Clouds Clear
Windchill 22 °F
Dew Point 11 °F
Humidity 62%
Rainfall 0.02 in
Snow Depth Not available.
UV 0 out of 12
Pollen .10 out of 12
Air Quality Not available.
Flu Activity Not available.
METAR KFKL 312215Z AUTO 24005KT 10SM CLR M05/M12 A3020 RMK AO1

More Conditions Fewer Conditions

10-Day Weather Forecast

Almanac

Astronomy

Jan. 31, 2015 Rise Set
Actual Time
Civil Twilight
Nautical Twilight
Astronomical Twilight
Moon
Length of Visible Light
Length of Day
Tomorrow will be .
, % of the Moon is Illuminated

Today's Extremes

State Highs State Lows

Community

WunderPhotos

Upload Photos

1,792,225 photos uploaded!

WunderBlogs® & News

Nearby

Air Quality

  Air Quality AQ Index Pollutant
Not available.

Snow Depth

Station Depth Elevation

Earthquake Activity

City Distance Mag. Time & Date
Minimum magnitude displayed is 2.5.

Coastal Water Temperatures

Place Temperature

Nearby Weather Stations